Darstellungsparameter: Aktuell verwendete Einstellungen:
Skalierung der Graphiken ... ?
xyx+y,   Skalierungsfaktor:      Skalierung: Modus: x, Faktor: 1
Darstellungszeitraum ... ?
Vom - - bis: - -   Zeitraum: 09.08.2022 - 10.08.2022
Min/Max/Avg-Anzeige ... ?
Zeige MMA aktuell
Zeige MMA Monat
Zeige MMA alles
Zeige --A aktuell
Zeige --A Monat
Zeige --A alles
Keine MMA-Anzeige
MMA:
Average (ber die Originaldaten)
MMA-Basis: 09.08.2022 - 10.08.2022
Quicknavigation für Darstellung... ?
Tage:      1T, 2T, 3T, 5T -1T -2T -3T -5T +1T +2T +3T +5T
Wochen: 1W, 2W, 3W -1W -2W -3W +1W +2W +3W
Monate: 1M, 3M, 6M -1M -3M -6M +1M +3M +6M
Jahre:    1J, 3J, 5J, 10J -1J -3J -5J -10J +1J +3J +5J +10J
Nutze für die Darstellung ... ?
Originaldaten oder Mittelwerte auf ...
Stundenbasis Tagesbasis Wochenbasis
Monatsbasis Jahresbasis      Datenbasis: Original-Daten
Darstellen als:
Statistik (Auto) Statistik J:M      Darstellung:

Der gewünschte Datumsbereich war nicht gültig/verfügbar und wurde korrigiert....
Das angegebene Enddatum (26.12.2022 23:59:59) liegt in der Zukunft.
Das angegebene Startdatum (26.12.2022 00:00:00) liegt in der Zukunft.


Zur Graphik,    zurück zur Übersicht aller Sensoren.
 
Tabellarische Datenbersicht: ?
 
Sensor: Nr:Datum:Temp:Abs-Feuchte:Windchill:Wind:
Aussen-T/F 1 09-08-2022 02:00:00 16.4 C 10.33 g/m*3 16.4 C 1.6 km/h
2 09-08-2022 02:05:00 16.3 C 10.27 g/m*3 16.3 C 1.6 km/h
3 09-08-2022 02:10:00 16.3 C 10.41 g/m*3 16.3 C 1.6 km/h
4 09-08-2022 02:15:00 16.2 C 10.34 g/m*3 16.2 C 1.6 km/h
5 09-08-2022 02:20:00 16.1 C 10.28 g/m*3 16.1 C 1.6 km/h
6 09-08-2022 02:25:00 15.9 C 10.29 g/m*3 15.9 C 3.2 km/h
7 09-08-2022 02:30:00 15.9 C 10.29 g/m*3 15.9 C 1.6 km/h
8 09-08-2022 02:35:00 15.8 C 10.36 g/m*3 15.8 C 0 km/h
9 09-08-2022 02:40:00 15.7 C 10.3 g/m*3 15.7 C 0 km/h
10 09-08-2022 02:45:00 15.6 C 10.24 g/m*3 15.6 C 0 km/h
11 09-08-2022 02:50:00 15.4 C 10.12 g/m*3 15.4 C 1.6 km/h
12 09-08-2022 02:55:00 15.3 C 10.19 g/m*3 15.3 C 0 km/h
13 09-08-2022 03:00:00 15.3 C 10.19 g/m*3 15.3 C 0 km/h
14 09-08-2022 03:05:00 15.2 C 10.12 g/m*3 15.2 C 0 km/h
15 09-08-2022 03:10:00 15.1 C 10.19 g/m*3 15.1 C 1.6 km/h
16 09-08-2022 03:15:00 15 C 10.13 g/m*3 15 C 0 km/h
17 09-08-2022 03:20:00 14.9 C 10.07 g/m*3 14.9 C 1.6 km/h
18 09-08-2022 03:25:00 14.9 C 10.2 g/m*3 14.9 C 0 km/h
19 09-08-2022 03:30:00 14.8 C 10.13 g/m*3 14.8 C 0 km/h
20 09-08-2022 03:35:00 14.8 C 10.13 g/m*3 14.8 C 0 km/h
21 09-08-2022 03:40:00 14.7 C 10.07 g/m*3 14.7 C 0 km/h
22 09-08-2022 03:45:00 14.6 C 10.01 g/m*3 14.6 C 0 km/h
23 09-08-2022 03:50:00 14.6 C 10.01 g/m*3 14.6 C 0 km/h
24 09-08-2022 03:55:00 14.5 C 10.07 g/m*3 14.5 C 0 km/h
25 09-08-2022 04:00:00 14.4 C 10.01 g/m*3 14.4 C 0 km/h
Sensor: Nr:Datum:Temp:Abs-Feuchte:Windchill:Wind:
Aussen-T/F 26 09-08-2022 04:05:00 14.4 C 10.01 g/m*3 14.4 C 0 km/h
27 09-08-2022 04:10:00 14.3 C 9.95 g/m*3 14.3 C 0 km/h
28 09-08-2022 04:15:00 14.3 C 10.07 g/m*3 14.3 C 0 km/h
29 09-08-2022 04:20:00 14.2 C 10.01 g/m*3 14.2 C 0 km/h
30 09-08-2022 04:25:00 14.2 C 10.01 g/m*3 14.2 C 0 km/h
31 09-08-2022 04:30:00 14.1 C 9.95 g/m*3 14.1 C 0 km/h
32 09-08-2022 04:35:00 14.1 C 9.95 g/m*3 14.1 C 0 km/h
33 09-08-2022 04:40:00 14.1 C 9.95 g/m*3 14.1 C 0 km/h
34 09-08-2022 04:45:00 14 C 9.89 g/m*3 14 C 0 km/h
35 09-08-2022 04:50:00 13.9 C 9.95 g/m*3 13.9 C 0 km/h
36 09-08-2022 04:55:00 13.9 C 9.95 g/m*3 13.9 C 0 km/h
37 09-08-2022 05:00:00 13.8 C 9.89 g/m*3 13.8 C 0 km/h
38 09-08-2022 05:05:00 13.8 C 9.89 g/m*3 13.8 C 0 km/h
39 09-08-2022 05:10:00 13.7 C 9.95 g/m*3 13.7 C 0 km/h
40 09-08-2022 05:15:00 13.6 C 9.89 g/m*3 13.6 C 0 km/h
41 09-08-2022 05:20:00 13.6 C 9.89 g/m*3 13.6 C 0 km/h
42 09-08-2022 05:25:00 13.5 C 9.94 g/m*3 13.5 C 0 km/h
43 09-08-2022 05:30:00 13.4 C 9.88 g/m*3 13.4 C 0 km/h
44 09-08-2022 05:35:00 13.4 C 9.88 g/m*3 13.4 C 0 km/h
45 09-08-2022 05:40:00 13.4 C 9.88 g/m*3 13.4 C 1.6 km/h
46 09-08-2022 05:45:00 13.3 C 9.94 g/m*3 13.3 C 0 km/h
47 09-08-2022 05:50:00 13.3 C 9.94 g/m*3 13.3 C 1.6 km/h
48 09-08-2022 05:55:00 13.3 C 9.94 g/m*3 13.3 C 0 km/h
49 09-08-2022 06:00:00 13.3 C 9.94 g/m*3 13.3 C 0 km/h
50 09-08-2022 06:05:00 13.3 C 9.94 g/m*3 13.3 C 0 km/h
Sensor: Nr:Datum:Temp:Abs-Feuchte:Windchill:Wind:
Aussen-T/F 51 09-08-2022 06:10:00 13.3 C 9.94 g/m*3 13.3 C 0 km/h
52 09-08-2022 06:15:00 13.2 C 9.99 g/m*3 13.2 C 0 km/h
53 09-08-2022 06:20:00 13.2 C 9.99 g/m*3 13.2 C 0 km/h
54 09-08-2022 06:25:00 13.2 C 9.99 g/m*3 13.2 C 0 km/h
55 09-08-2022 06:30:00 13.1 C 9.93 g/m*3 13.1 C 0 km/h
56 09-08-2022 06:35:00 13.1 C 9.93 g/m*3 13.1 C 3.2 km/h
57 09-08-2022 06:40:00 13.1 C 9.93 g/m*3 13.1 C 0 km/h
58 09-08-2022 06:45:00 13.1 C 10.04 g/m*3 13.1 C 1.6 km/h
59 09-08-2022 06:50:00 13.1 C 10.04 g/m*3 13.1 C 0 km/h
60 09-08-2022 06:55:00 13.1 C 10.04 g/m*3 13.1 C 0 km/h
61 09-08-2022 07:00:00 13.1 C 10.04 g/m*3 13.1 C 0 km/h
62 09-08-2022 07:05:00 13.2 C 10.1 g/m*3 13.2 C 0 km/h
63 09-08-2022 07:10:00 13.2 C 10.1 g/m*3 13.2 C 0 km/h
64 09-08-2022 07:15:00 13.2 C 10.1 g/m*3 13.2 C 0 km/h
65 09-08-2022 07:20:00 13.2 C 10.22 g/m*3 13.2 C 0 km/h
66 09-08-2022 07:25:00 13.3 C 10.28 g/m*3 13.3 C 0 km/h
67 09-08-2022 07:30:00 13.3 C 10.28 g/m*3 13.3 C 0 km/h
68 09-08-2022 07:35:00 13.3 C 10.28 g/m*3 13.3 C 0 km/h
69 09-08-2022 07:40:00 13.3 C 10.28 g/m*3 13.3 C 0 km/h
70 09-08-2022 07:45:00 13.4 C 10.35 g/m*3 13.4 C 0 km/h
71 09-08-2022 07:50:00 13.4 C 10.35 g/m*3 13.4 C 0 km/h
72 09-08-2022 07:55:00 13.4 C 10.35 g/m*3 13.4 C 0 km/h
73 09-08-2022 08:00:00 13.5 C 10.41 g/m*3 13.5 C 0 km/h
74 09-08-2022 08:05:00 13.5 C 10.41 g/m*3 13.5 C 0 km/h
75 09-08-2022 08:10:00 13.6 C 10.47 g/m*3 13.6 C 0 km/h
Sensor: Nr:Datum:Temp:Abs-Feuchte:Windchill:Wind:
Aussen-T/F 76 09-08-2022 08:15:00 13.6 C 10.59 g/m*3 13.6 C 0 km/h
77 09-08-2022 08:20:00 13.7 C 10.66 g/m*3 13.7 C 0 km/h
78 09-08-2022 08:25:00 13.7 C 10.66 g/m*3 13.7 C 1.6 km/h
79 09-08-2022 08:30:00 13.8 C 10.72 g/m*3 13.8 C 0 km/h
80 09-08-2022 08:35:00 13.8 C 10.72 g/m*3 13.8 C 0 km/h
81 09-08-2022 08:40:00 13.9 C 10.79 g/m*3 13.9 C 0 km/h
82 09-08-2022 08:45:00 14 C 10.86 g/m*3 14 C 0 km/h
83 09-08-2022 08:50:00 14.1 C 10.92 g/m*3 14.1 C 0 km/h
84 09-08-2022 08:55:00 14.2 C 10.99 g/m*3 14.2 C 0 km/h
85 09-08-2022 09:00:00 14.3 C 11.06 g/m*3 14.3 C 0 km/h
86 09-08-2022 09:05:00 14.3 C 11.06 g/m*3 14.3 C 0 km/h
87 09-08-2022 09:10:00 14.4 C 11 g/m*3 14.4 C 0 km/h
88 09-08-2022 09:15:00 14.6 C 11.14 g/m*3 14.6 C 0 km/h
89 09-08-2022 09:20:00 14.7 C 11.21 g/m*3 14.7 C 0 km/h
90 09-08-2022 09:25:00 14.8 C 11.27 g/m*3 14.8 C 0 km/h
91 09-08-2022 09:30:00 14.9 C 11.34 g/m*3 14.9 C 0 km/h
92 09-08-2022 09:35:00 15.1 C 11.35 g/m*3 15.1 C 0 km/h
93 09-08-2022 09:40:00 15.2 C 11.42 g/m*3 15.2 C 0 km/h
94 09-08-2022 09:45:00 15.3 C 11.49 g/m*3 15.3 C 0 km/h
95 09-08-2022 09:50:00 15.5 C 11.63 g/m*3 15.5 C 0 km/h
96 09-08-2022 09:55:00 15.7 C 11.64 g/m*3 15.7 C 0 km/h
97 09-08-2022 10:00:00 15.9 C 11.65 g/m*3 15.9 C 0 km/h
98 09-08-2022 10:05:00 16.2 C 11.86 g/m*3 16.2 C 0 km/h
99 09-08-2022 10:10:00 16.3 C 11.65 g/m*3 16.3 C 0 km/h
100 09-08-2022 10:15:00 16.6 C 11.72 g/m*3 16.6 C 0 km/h
Sensor: Nr:Datum:Temp:Abs-Feuchte:Windchill:Wind:
Aussen-T/F 101 09-08-2022 10:20:00 16.9 C 11.65 g/m*3 16.9 C 3.2 km/h
102 09-08-2022 10:25:00 17.2 C 11.86 g/m*3 17.2 C 0 km/h
103 09-08-2022 10:30:00 17.5 C 11.48 g/m*3 17.5 C 0 km/h
104 09-08-2022 10:35:00 17.8 C 11.84 g/m*3 17.8 C 0 km/h
105 09-08-2022 10:40:00 18.1 C 11.59 g/m*3 18.1 C 1.6 km/h
106 09-08-2022 10:45:00 18.4 C 11.48 g/m*3 18.4 C 0 km/h
107 09-08-2022 10:50:00 18.9 C 11.5 g/m*3 18.9 C 0 km/h
108 09-08-2022 10:55:00 19.3 C 11.11 g/m*3 19.3 C 1.6 km/h
109 09-08-2022 11:00:00 19.9 C 11.51 g/m*3 19.9 C 1.6 km/h
110 09-08-2022 11:05:00 20.4 C 11.68 g/m*3 20.4 C 3.2 km/h
111 09-08-2022 11:10:00 20.9 C 11.66 g/m*3 20.9 C 3.2 km/h
112 09-08-2022 11:15:00 21.4 C 11.44 g/m*3 21.4 C 3.2 km/h
113 09-08-2022 11:20:00 21.8 C 11.9 g/m*3 21.8 C 3.2 km/h
114 09-08-2022 11:25:00 22.2 C 11.58 g/m*3 22.2 C 4.8 km/h
115 09-08-2022 11:30:00 22.7 C 11.52 g/m*3 22.7 C 3.2 km/h
116 09-08-2022 11:35:00 23.1 C 11.58 g/m*3 23.1 C 4.8 km/h
117 09-08-2022 11:40:00 23.3 C 11.5 g/m*3 23.3 C 8.1 km/h
118 09-08-2022 11:45:00 23.7 C 11.34 g/m*3 23.7 C 4.8 km/h
119 09-08-2022 11:50:00 23.9 C 11.47 g/m*3 23.9 C 3.2 km/h
120 09-08-2022 11:55:00 24.3 C 11.51 g/m*3 24.3 C 3.2 km/h
121 09-08-2022 12:00:00 24.5 C 11.41 g/m*3 24.5 C 6.4 km/h
122 09-08-2022 12:05:00 24.8 C 11.61 g/m*3 24.8 C 6.4 km/h
123 09-08-2022 12:10:00 25.2 C 11.64 g/m*3 25.2 C 4.8 km/h
124 09-08-2022 12:15:00 25.5 C 11.6 g/m*3 25.5 C 9.7 km/h
125 09-08-2022 12:20:00 25.8 C 11.07 g/m*3 25.8 C 9.7 km/h
Sensor: Nr:Datum:Temp:Abs-Feuchte:Windchill:Wind:
Aussen-T/F 126 09-08-2022 12:25:00 26.2 C 11.32 g/m*3 26.2 C 6.4 km/h
127 09-08-2022 12:30:00 26.6 C 11.33 g/m*3 26.6 C 11.3 km/h
128 09-08-2022 12:35:00 26.8 C 10.94 g/m*3 26.8 C 11.3 km/h
129 09-08-2022 12:40:00 26.9 C 10.75 g/m*3 26.9 C 8.1 km/h
130 09-08-2022 12:45:00 27.1 C 11.13 g/m*3 27.1 C 9.7 km/h
131 09-08-2022 12:50:00 27.4 C 10.79 g/m*3 27.4 C 9.7 km/h
132 09-08-2022 12:55:00 27.5 C 10.58 g/m*3 27.5 C 12.9 km/h
133 09-08-2022 13:00:00 27.7 C 10.7 g/m*3 27.7 C 3.2 km/h
134 09-08-2022 13:05:00 28 C 10.33 g/m*3 28 C 9.7 km/h
135 09-08-2022 13:10:00 28.2 C 10.72 g/m*3 28.2 C 4.8 km/h
136 09-08-2022 13:15:00 28.4 C 10.56 g/m*3 28.4 C 11.3 km/h
137 09-08-2022 13:20:00 28.7 C 10.46 g/m*3 28.7 C 11.3 km/h
138 09-08-2022 13:25:00 28.9 C 10.57 g/m*3 28.9 C 8.1 km/h
139 09-08-2022 13:30:00 29.1 C 10.4 g/m*3 29.1 C 16.1 km/h
140 09-08-2022 13:35:00 29.1 C 10.4 g/m*3 29.1 C 16.1 km/h
141 09-08-2022 13:40:00 29.1 C 10.4 g/m*3 29.1 C 14.5 km/h
142 09-08-2022 13:45:00 29.3 C 10.22 g/m*3 29.3 C 9.7 km/h
143 09-08-2022 13:50:00 29.6 C 10.09 g/m*3 29.6 C 16.1 km/h
144 09-08-2022 13:55:00 29.7 C 9.85 g/m*3 29.7 C 12.9 km/h
145 09-08-2022 14:00:00 29.8 C 9.9 g/m*3 29.8 C 9.7 km/h
146 09-08-2022 14:05:00 29.9 C 9.95 g/m*3 29.9 C 8.1 km/h
147 09-08-2022 14:10:00 30.2 C 9.81 g/m*3 30.2 C 12.9 km/h
148 09-08-2022 14:15:00 30.2 C 9.5 g/m*3 30.2 C 16.1 km/h
149 09-08-2022 14:20:00 30.2 C 9.5 g/m*3 30.2 C 17.7 km/h
150 09-08-2022 14:25:00 30.2 C 9.2 g/m*3 30.2 C 16.1 km/h
Sensor: Nr:Datum:Temp:Abs-Feuchte:Windchill:Wind:
Aussen-T/F 151 09-08-2022 14:30:00 30.2 C 9.5 g/m*3 30.2 C 9.7 km/h
152 09-08-2022 14:35:00 30.2 C 9.2 g/m*3 30.2 C 14.5 km/h
153 09-08-2022 14:40:00 30.2 C 9.2 g/m*3 30.2 C 12.9 km/h
154 09-08-2022 14:45:00 30.3 C 9.25 g/m*3 30.3 C 16.1 km/h
155 09-08-2022 14:50:00 30.4 C 9.3 g/m*3 30.4 C 11.3 km/h
156 09-08-2022 14:55:00 30.3 C 8.94 g/m*3 30.3 C 17.7 km/h
157 09-08-2022 15:00:00 30.4 C 9.3 g/m*3 30.4 C 17.7 km/h
158 09-08-2022 15:05:00 30.7 C 9.45 g/m*3 30.7 C 11.3 km/h
159 09-08-2022 15:10:00 30.9 C 9.55 g/m*3 30.9 C 6.4 km/h
160 09-08-2022 15:15:00 31.3 C 9.43 g/m*3 31.3 C 6.4 km/h
161 09-08-2022 15:20:00 31.4 C 9.15 g/m*3 31.4 C 12.9 km/h
162 09-08-2022 15:25:00 31.2 C 9.06 g/m*3 31.2 C 20.9 km/h
163 09-08-2022 15:30:00 31.1 C 9.33 g/m*3 31.1 C 20.9 km/h
164 09-08-2022 15:35:00 31.2 C 9.06 g/m*3 31.2 C 17.7 km/h
165 09-08-2022 15:40:00 31.3 C 9.11 g/m*3 31.3 C 6.4 km/h
166 09-08-2022 15:45:00 31.6 C 9.25 g/m*3 31.6 C 3.2 km/h
167 09-08-2022 15:50:00 31.7 C 9.3 g/m*3 31.7 C 4.8 km/h
168 09-08-2022 15:55:00 31.8 C 9.35 g/m*3 31.8 C 4.8 km/h
169 09-08-2022 16:00:00 31.9 C 9.4 g/m*3 31.9 C 9.7 km/h
170 09-08-2022 16:05:00 32 C 9.45 g/m*3 32 C 9.7 km/h
171 09-08-2022 16:10:00 31.9 C 9.4 g/m*3 31.9 C 12.9 km/h
172 09-08-2022 16:15:00 31.8 C 9.02 g/m*3 31.8 C 16.1 km/h
173 09-08-2022 16:20:00 31.6 C 9.25 g/m*3 31.6 C 17.7 km/h
174 09-08-2022 16:25:00 31.5 C 9.2 g/m*3 31.5 C 9.7 km/h
175 09-08-2022 16:30:00 31.1 C 9.01 g/m*3 31.1 C 12.9 km/h
Sensor: Nr:Datum:Temp:Abs-Feuchte:Windchill:Wind:
Aussen-T/F 176 09-08-2022 16:35:00 30.9 C 9.55 g/m*3 30.9 C 12.9 km/h
177 09-08-2022 16:40:00 31.2 C 9.38 g/m*3 31.2 C 9.7 km/h
178 09-08-2022 16:45:00 31.6 C 9.58 g/m*3 31.6 C 8.1 km/h
179 09-08-2022 16:50:00 31.8 C 9.35 g/m*3 31.8 C 14.5 km/h
180 09-08-2022 16:55:00 31.8 C 9.02 g/m*3 31.8 C 12.9 km/h
181 09-08-2022 17:00:00 31.9 C 9.4 g/m*3 31.9 C 12.9 km/h
182 09-08-2022 17:05:00 31.9 C 9.07 g/m*3 31.9 C 11.3 km/h
183 09-08-2022 17:10:00 31.9 C 9.07 g/m*3 31.9 C 9.7 km/h
184 09-08-2022 17:15:00 31.6 C 9.25 g/m*3 31.6 C 14.5 km/h
185 09-08-2022 17:20:00 31.4 C 9.15 g/m*3 31.4 C 16.1 km/h
186 09-08-2022 17:25:00 30.8 C 8.86 g/m*3 30.8 C 9.7 km/h
187 09-08-2022 17:30:00 30.3 C 9.25 g/m*3 30.3 C 8.1 km/h
188 09-08-2022 17:35:00 30 C 10.61 g/m*3 30 C 3.2 km/h
189 09-08-2022 17:40:00 29.8 C 9.6 g/m*3 29.8 C 4.8 km/h
190 09-08-2022 17:45:00 30.1 C 9.15 g/m*3 30.1 C 6.4 km/h
191 09-08-2022 17:50:00 30.7 C 9.13 g/m*3 30.7 C 3.2 km/h
192 09-08-2022 17:55:00 31.2 C 9.06 g/m*3 31.2 C 8.1 km/h
193 09-08-2022 18:00:00 31.6 C 9.25 g/m*3 31.6 C 8.1 km/h
194 09-08-2022 18:05:00 31.7 C 9.3 g/m*3 31.7 C 11.3 km/h
195 09-08-2022 18:10:00 31.6 C 9.25 g/m*3 31.6 C 12.9 km/h
196 09-08-2022 18:15:00 31.2 C 9.06 g/m*3 31.2 C 8.1 km/h
197 09-08-2022 18:20:00 30.8 C 9.18 g/m*3 30.8 C 11.3 km/h
198 09-08-2022 18:25:00 30.7 C 9.13 g/m*3 30.7 C 9.7 km/h
199 09-08-2022 18:30:00 30.8 C 9.18 g/m*3 30.8 C 11.3 km/h
200 09-08-2022 18:35:00 30.8 C 9.18 g/m*3 30.8 C 14.5 km/h
Sensor: Nr:Datum:Temp:Abs-Feuchte:Windchill:Wind:
Aussen-T/F 201 09-08-2022 18:40:00 30.8 C 9.18 g/m*3 30.8 C 11.3 km/h
202 09-08-2022 18:45:00 30.7 C 9.13 g/m*3 30.7 C 9.7 km/h
203 09-08-2022 18:50:00 30.6 C 9.08 g/m*3 30.6 C 12.9 km/h
204 09-08-2022 18:55:00 30.6 C 9.08 g/m*3 30.6 C 14.5 km/h
205 09-08-2022 19:00:00 30.2 C 8.89 g/m*3 30.2 C 17.7 km/h
206 09-08-2022 19:05:00 30.1 C 9.15 g/m*3 30.1 C 12.9 km/h
207 09-08-2022 19:10:00 30.1 C 8.84 g/m*3 30.1 C 12.9 km/h
208 09-08-2022 19:15:00 30 C 9.1 g/m*3 30 C 9.7 km/h
209 09-08-2022 19:20:00 30 C 8.79 g/m*3 30 C 11.3 km/h
210 09-08-2022 19:25:00 30 C 9.1 g/m*3 30 C 9.7 km/h
211 09-08-2022 19:30:00 29.9 C 9.05 g/m*3 29.9 C 12.9 km/h
212 09-08-2022 19:35:00 29.8 C 9 g/m*3 29.8 C 9.7 km/h
213 09-08-2022 19:40:00 29.7 C 10.14 g/m*3 29.7 C 8.1 km/h
214 09-08-2022 19:45:00 29.6 C 9.79 g/m*3 29.6 C 1.6 km/h
215 09-08-2022 19:50:00 29.4 C 10.27 g/m*3 29.4 C 1.6 km/h
216 09-08-2022 19:55:00 29.3 C 10.8 g/m*3 29.3 C 1.6 km/h
217 09-08-2022 20:00:00 29.1 C 10.11 g/m*3 29.1 C 1.6 km/h
218 09-08-2022 20:05:00 28.8 C 11.65 g/m*3 28.8 C 3.2 km/h
219 09-08-2022 20:10:00 28.6 C 11.8 g/m*3 28.6 C 3.2 km/h
220 09-08-2022 20:15:00 28.2 C 11.55 g/m*3 28.2 C 4.8 km/h
221 09-08-2022 20:20:00 27.8 C 11.3 g/m*3 27.8 C 0 km/h
222 09-08-2022 20:25:00 27.3 C 11.25 g/m*3 27.3 C 0 km/h
223 09-08-2022 20:30:00 26.9 C 11.52 g/m*3 26.9 C 1.6 km/h
224 09-08-2022 20:35:00 26.4 C 10.95 g/m*3 26.4 C 3.2 km/h
225 09-08-2022 20:40:00 26.1 C 11.51 g/m*3 26.1 C 0 km/h
Sensor: Nr:Datum:Temp:Abs-Feuchte:Windchill:Wind:
Aussen-T/F 226 09-08-2022 20:45:00 25.6 C 11.43 g/m*3 25.6 C 1.6 km/h
227 09-08-2022 20:50:00 25 C 10.82 g/m*3 25 C 0 km/h
228 09-08-2022 20:55:00 24.6 C 11.03 g/m*3 24.6 C 3.2 km/h
229 09-08-2022 21:00:00 24.1 C 10.72 g/m*3 24.1 C 1.6 km/h
230 09-08-2022 21:05:00 23.7 C 11.12 g/m*3 23.7 C 1.6 km/h
231 09-08-2022 21:10:00 23.3 C 10.66 g/m*3 23.3 C 1.6 km/h
232 09-08-2022 21:15:00 22.9 C 10.42 g/m*3 22.9 C 1.6 km/h
233 09-08-2022 21:20:00 22.6 C 10.45 g/m*3 22.6 C 3.2 km/h
234 09-08-2022 21:25:00 22.3 C 10.27 g/m*3 22.3 C 3.2 km/h
235 09-08-2022 21:30:00 22.1 C 10.54 g/m*3 22.1 C 1.6 km/h
236 09-08-2022 21:35:00 21.9 C 10.23 g/m*3 21.9 C 1.6 km/h
237 09-08-2022 21:40:00 21.7 C 10.49 g/m*3 21.7 C 1.6 km/h
238 09-08-2022 21:45:00 21.4 C 9.94 g/m*3 21.4 C 4.8 km/h
239 09-08-2022 21:50:00 21.2 C 10.19 g/m*3 21.2 C 3.2 km/h
240 09-08-2022 21:55:00 21.1 C 10.32 g/m*3 21.1 C 1.6 km/h
241 09-08-2022 22:00:00 20.9 C 10.56 g/m*3 20.9 C 3.2 km/h
242 09-08-2022 22:05:00 20.7 C 10.26 g/m*3 20.7 C 1.6 km/h
243 09-08-2022 22:10:00 20.6 C 10.38 g/m*3 20.6 C 1.6 km/h
244 09-08-2022 22:15:00 20.4 C 10.61 g/m*3 20.4 C 1.6 km/h
245 09-08-2022 22:20:00 20.2 C 10.49 g/m*3 20.2 C 1.6 km/h
246 09-08-2022 22:25:00 20.1 C 10.6 g/m*3 20.1 C 3.2 km/h
247 09-08-2022 22:30:00 19.9 C 10.48 g/m*3 19.9 C 3.2 km/h
248 09-08-2022 22:35:00 19.7 C 10.19 g/m*3 19.7 C 3.2 km/h
249 09-08-2022 22:40:00 19.6 C 10.3 g/m*3 19.6 C 0 km/h
250 09-08-2022 22:45:00 19.5 C 10.41 g/m*3 19.5 C 3.2 km/h
Sensor: Nr:Datum:Temp:Abs-Feuchte:Windchill:Wind:
Aussen-T/F 251 09-08-2022 22:50:00 19.4 C 10.51 g/m*3 19.4 C 1.6 km/h
252 09-08-2022 22:55:00 19.3 C 10.62 g/m*3 19.3 C 3.2 km/h
253 09-08-2022 23:00:00 19.2 C 10.22 g/m*3 19.2 C 3.2 km/h
254 09-08-2022 23:05:00 19.1 C 10.49 g/m*3 19.1 C 3.2 km/h
255 09-08-2022 23:10:00 19.1 C 10.16 g/m*3 19.1 C 1.6 km/h
256 09-08-2022 23:15:00 19 C 10.43 g/m*3 19 C 0 km/h
257 09-08-2022 23:20:00 19 C 10.43 g/m*3 19 C 0 km/h
258 09-08-2022 23:25:00 18.9 C 10.37 g/m*3 18.9 C 1.6 km/h
259 09-08-2022 23:30:00 18.8 C 10.47 g/m*3 18.8 C 3.2 km/h
260 09-08-2022 23:35:00 18.8 C 10.31 g/m*3 18.8 C 0 km/h
261 09-08-2022 23:40:00 18.8 C 10.31 g/m*3 18.8 C 0 km/h
262 09-08-2022 23:45:00 18.7 C 10.41 g/m*3 18.7 C 0 km/h
263 09-08-2022 23:50:00 18.7 C 10.41 g/m*3 18.7 C 1.6 km/h
264 09-08-2022 23:55:00 18.7 C 10.25 g/m*3 18.7 C 3.2 km/h
265 10-08-2022 00:00:00 18.6 C 10.19 g/m*3 18.6 C 4.8 km/h
266 10-08-2022 00:05:00 18.7 C 10.41 g/m*3 18.7 C 3.2 km/h
267 10-08-2022 00:10:00 18.7 C 10.41 g/m*3 18.7 C 4.8 km/h
268 10-08-2022 00:15:00 18.7 C 10.57 g/m*3 18.7 C 4.8 km/h
269 10-08-2022 00:20:00 18.7 C 10.41 g/m*3 18.7 C 3.2 km/h
270 10-08-2022 00:25:00 18.8 C 10.63 g/m*3 18.8 C 3.2 km/h
271 10-08-2022 00:30:00 18.8 C 10.63 g/m*3 18.8 C 3.2 km/h
272 10-08-2022 00:35:00 18.8 C 10.63 g/m*3 18.8 C 1.6 km/h
273 10-08-2022 00:40:00 18.7 C 10.57 g/m*3 18.7 C 1.6 km/h
274 10-08-2022 00:45:00 18.7 C 10.57 g/m*3 18.7 C 3.2 km/h
275 10-08-2022 00:50:00 18.6 C 10.66 g/m*3 18.6 C 3.2 km/h
Sensor: Nr:Datum:Temp:Abs-Feuchte:Windchill:Wind:
Aussen-T/F 276 10-08-2022 00:55:00 18.5 C 10.6 g/m*3 18.5 C 0 km/h

Legende:
   Min
   Max


Maximal/Minimal-Werte vom 09.08.2022 - 10.08.2022

Sensor Min Max Avg
Temp
(Aussen-T/F)
13.1 °C
09-08-2022  06:30:00
32 °C
09-08-2022  16:05:00
21.74 °C
Abs-Feuchte
(Aussen-T/F)
8.79 g/m*3
09-08-2022  19:20:00
11.9 g/m*3
09-08-2022  11:20:00
10.23 g/m*3
Windchill
(Aussen-T/F)
13.1 C
09-08-2022  06:30:00
32 C
09-08-2022  16:05:00
21.66 C

Die Daten stammen von einer Davis Vantage Pro 2 Wetter-Station und werden unter Linux mit der Software wview2wettercgi und aufbereitet. Alle Angaben erfolgen ohne Gewähr für ihre Vollständigkeit oder Richtigkeit.
Kontakt: Rainer Krienke krienke@uni-koblenz.de . Meine Webseiten an der Uni Koblenz oder privat.
Version: $Revision: 0.78 $